Time;durP1;ratioP1;P1;durP2;ratioP2;P2;SDS_P1;SDS_P2;PMS_P1;PMS_P2;Temp;Humidity;BMP_temperature;BMP_pressure;BME280_temperature;BME280_humidity;BME280_pressure;Samples;Min_cycle;Max_cycle;Signal;HPM_P1;HPM_P2
2023/01/17 00:00:14;;;;;;;1.70;1.60;;;;;;;;;;5030196;28;20469;-75
2023/01/17 00:02:41;;;;;;;1.90;1.80;;;;;;;;;;5029723;28;20445;-74
2023/01/17 00:10:40;;;;;;;2.20;1.70;;;;;;;;;;5029682;28;20465;-74
2023/01/17 00:13:08;;;;;;;1.63;1.57;;;;;;;;;;5029001;28;20946;-74
2023/01/17 00:15:36;;;;;;;1.70;1.60;;;;;;;;;;5029769;28;20444;-74
2023/01/17 00:18:03;;;;;;;2.00;1.90;;;;;;;;;;5029726;28;20447;-74
2023/01/17 00:26:04;;;;;;;1.90;1.80;;;;;;;;;;5029801;28;21141;-74
2023/01/17 01:35:29;;;;;;;2.20;2.00;;;;;;;;;;5048680;28;20803;-75
2023/01/17 01:37:57;;;;;;;2.40;2.03;;;;;;;;;;5048631;28;20498;-75
2023/01/17 01:40:24;;;;;;;2.00;1.87;;;;;;;;;;5048547;28;20466;-73
2023/01/17 01:42:52;;;;;;;2.20;2.10;;;;;;;;;;5048142;28;20935;-73
2023/01/17 01:45:20;;;;;;;2.70;2.00;;;;;;;;;;5050626;28;20456;-74
2023/01/17 01:47:49;;;;;;;2.50;2.30;;;;;;;;;;5052875;28;20444;-73
2023/01/17 01:50:16;;;;;;;2.30;2.20;;;;;;;;;;5052130;28;20469;-73
2023/01/17 01:52:46;;;;;;;2.27;2.07;;;;;;;;;;5052698;28;20440;-73
2023/01/17 01:55:16;;;;;;;2.37;2.17;;;;;;;;;;5052700;28;20471;-74
2023/01/17 01:57:44;;;;;;;2.77;1.83;;;;;;;;;;5052489;28;20473;-74
2023/01/17 02:00:16;;;;;;;2.10;2.00;;;;;;;;;;5052097;28;20466;-73
2023/01/17 02:02:43;;;;;;;2.20;2.10;;;;;;;;;;5053006;28;20479;-73
2023/01/17 02:05:13;;;;;;;2.10;1.90;;;;;;;;;;5055171;28;20457;-74
2023/01/17 02:07:42;;;;;;;2.10;2.00;;;;;;;;;;5054020;28;20470;-74
2023/01/17 02:10:10;;;;;;;1.80;1.80;;;;;;;;;;5053748;28;20483;-75
2023/01/17 02:12:37;;;;;;;2.00;1.90;;;;;;;;;;5053762;28;20455;-75
2023/01/17 02:15:06;;;;;;;1.93;1.73;;;;;;;;;;5051813;28;20441;-74
2023/01/17 02:17:38;;;;;;;2.00;1.90;;;;;;;;;;5036776;28;20504;-75
2023/01/17 02:20:20;;;;;;;2.37;2.17;;;;;;;;;;5036654;28;20464;-74
2023/01/17 02:22:58;;;;;;;2.20;2.10;;;;;;;;;;5032166;28;20485;-74
2023/01/17 02:25:38;;;;;;;2.93;1.93;;;;;;;;;;5032236;28;20468;-74
2023/01/17 02:28:16;;;;;;;3.07;2.30;;;;;;;;;;5032597;28;20461;-74
2023/01/17 02:30:46;;;;;;;3.87;2.40;;;;;;;;;;5034326;28;20513;-75
2023/01/17 02:33:18;;;;;;;3.20;2.10;;;;;;;;;;5071507;28;20463;-75
2023/01/17 02:35:52;;;;;;;2.00;1.80;;;;;;;;;;5071686;28;20445;-75
2023/01/17 02:38:31;;;;;;;2.30;2.10;;;;;;;;;;5071830;28;20432;-74
2023/01/17 02:41:00;;;;;;;1.90;1.80;;;;;;;;;;5071852;28;20478;-73
2023/01/17 02:43:28;;;;;;;1.60;1.60;;;;;;;;;;5072909;28;20966;-74
2023/01/17 02:45:56;;;;;;;2.03;1.87;;;;;;;;;;5074761;28;20452;-74
2023/01/17 02:48:25;;;;;;;2.30;2.20;;;;;;;;;;5083513;28;20497;-73
2023/01/17 02:50:58;;;;;;;2.17;2.07;;;;;;;;;;5082818;28;20444;-74
2023/01/17 02:53:30;;;;;;;5.13;2.40;;;;;;;;;;5074267;28;20442;-74
2023/01/17 02:56:01;;;;;;;3.70;2.33;;;;;;;;;;5072552;28;20452;-73
2023/01/17 02:58:39;;;;;;;2.10;2.00;;;;;;;;;;5072563;28;20479;-73
2023/01/17 03:01:13;;;;;;;2.60;2.10;;;;;;;;;;5073017;28;20486;-75
2023/01/17 03:03:47;;;;;;;1.80;1.50;;;;;;;;;;5076734;28;20436;-74
2023/01/17 03:06:17;;;;;;;2.40;1.70;;;;;;;;;;5073955;28;20605;-75
2023/01/17 03:08:45;;;;;;;3.03;1.73;;;;;;;;;;5071594;28;20473;-74
2023/01/17 03:11:13;;;;;;;2.50;2.23;;;;;;;;;;5071080;28;20441;-73
2023/01/17 03:13:40;;;;;;;2.23;2.13;;;;;;;;;;5070405;28;20486;-73
2023/01/17 03:16:08;;;;;;;2.17;2.07;;;;;;;;;;5057075;28;20449;-74
2023/01/17 03:18:37;;;;;;;3.00;2.80;;;;;;;;;;5050503;28;20826;-75
2023/01/17 03:21:04;;;;;;;2.00;1.80;;;;;;;;;;5050303;28;20944;-74
2023/01/17 03:23:31;;;;;;;2.33;2.20;;;;;;;;;;5050304;28;20441;-75
2023/01/17 03:25:58;;;;;;;1.80;1.70;;;;;;;;;;5049976;28;20876;-75
2023/01/17 03:28:25;;;;;;;2.03;1.93;;;;;;;;;;5049974;28;20484;-74
2023/01/17 03:30:52;;;;;;;1.90;1.80;;;;;;;;;;5050197;28;20560;-74
2023/01/17 03:33:19;;;;;;;2.17;1.97;;;;;;;;;;5049883;28;20445;-73
2023/01/17 03:35:47;;;;;;;3.40;1.77;;;;;;;;;;5049963;28;20462;-74
2023/01/17 03:38:15;;;;;;;2.33;1.93;;;;;;;;;;5050393;28;20461;-74
2023/01/17 03:40:42;;;;;;;1.80;1.70;;;;;;;;;;5050045;28;20459;-75
2023/01/17 03:43:09;;;;;;;1.93;1.83;;;;;;;;;;5049657;28;20485;-75
2023/01/17 03:45:36;;;;;;;1.97;1.87;;;;;;;;;;5050122;28;20452;-74
2023/01/17 03:48:03;;;;;;;1.80;1.70;;;;;;;;;;5049721;28;20448;-74
2023/01/17 03:50:30;;;;;;;1.60;1.60;;;;;;;;;;5049905;28;20928;-74
2023/01/17 03:52:58;;;;;;;2.30;1.70;;;;;;;;;;5049442;28;20489;-75
2023/01/17 03:55:25;;;;;;;1.77;1.30;;;;;;;;;;5058729;28;21178;-74
2023/01/17 03:57:52;;;;;;;1.77;1.73;;;;;;;;;;5061953;28;20443;-73
2023/01/17 04:00:20;;;;;;;1.53;1.53;;;;;;;;;;5058791;28;20455;-74
2023/01/17 04:02:47;;;;;;;1.83;1.77;;;;;;;;;;5058341;28;20486;-74
2023/01/17 04:05:14;;;;;;;1.73;1.63;;;;;;;;;;5059636;28;20446;-75
2023/01/17 04:07:42;;;;;;;1.70;1.70;;;;;;;;;;5059722;28;20441;-75
2023/01/17 04:10:11;;;;;;;1.53;1.53;;;;;;;;;;5070671;28;20443;-74
2023/01/17 04:12:38;;;;;;;1.63;1.53;;;;;;;;;;5074380;28;20430;-74
2023/01/17 04:15:05;;;;;;;1.93;1.60;;;;;;;;;;5069417;28;20438;-75
2023/01/17 04:17:32;;;;;;;1.33;1.30;;;;;;;;;;5054349;28;20449;-75
2023/01/17 04:19:59;;;;;;;1.50;1.50;;;;;;;;;;5045181;28;20564;-75
2023/01/17 04:22:26;;;;;;;1.63;1.53;;;;;;;;;;5034153;28;20501;-75
2023/01/17 04:24:53;;;;;;;2.13;2.00;;;;;;;;;;5032784;28;20443;-75
2023/01/17 04:27:22;;;;;;;1.43;1.43;;;;;;;;;;5037515;28;20451;-74
2023/01/17 04:29:49;;;;;;;2.13;1.87;;;;;;;;;;5053624;28;20825;-74
2023/01/17 04:32:16;;;;;;;2.13;2.00;;;;;;;;;;5053603;28;20442;-74
2023/01/17 04:34:43;;;;;;;1.77;1.73;;;;;;;;;;5059141;28;20445;-74
2023/01/17 04:37:10;;;;;;;2.10;2.00;;;;;;;;;;5051159;28;20443;-75
2023/01/17 04:39:37;;;;;;;2.10;2.00;;;;;;;;;;5051190;28;21015;-75
2023/01/17 04:42:04;;;;;;;1.93;1.83;;;;;;;;;;5052275;28;20481;-74
2023/01/17 04:44:32;;;;;;;1.90;1.80;;;;;;;;;;5050900;28;20460;-75
2023/01/17 04:47:00;;;;;;;2.00;1.90;;;;;;;;;;5052988;28;20448;-75
2023/01/17 04:49:27;;;;;;;2.60;2.27;;;;;;;;;;5054360;28;20606;-75
2023/01/17 04:51:54;;;;;;;2.50;2.30;;;;;;;;;;5054408;28;20476;-75
2023/01/17 04:54:21;;;;;;;8.53;2.30;;;;;;;;;;5054799;28;20451;-75
2023/01/17 04:56:48;;;;;;;2.33;2.23;;;;;;;;;;5056847;28;20448;-74
2023/01/17 04:59:16;;;;;;;2.97;2.60;;;;;;;;;;5058523;28;20569;-74
2023/01/17 05:01:44;;;;;;;2.10;2.07;;;;;;;;;;5055862;28;20960;-74
2023/01/17 05:04:11;;;;;;;2.73;2.53;;;;;;;;;;5051273;28;20458;-75
2023/01/17 05:06:38;;;;;;;2.43;2.33;;;;;;;;;;5053696;28;20451;-75
2023/01/17 05:09:05;;;;;;;2.50;1.90;;;;;;;;;;5052489;28;20464;-74
2023/01/17 05:11:32;;;;;;;2.63;2.47;;;;;;;;;;5056169;28;20817;-75
2023/01/17 05:13:59;;;;;;;2.77;2.67;;;;;;;;;;5062382;28;20437;-74
2023/01/17 05:16:27;;;;;;;2.37;2.27;;;;;;;;;;5038709;28;20534;-75
2023/01/17 05:18:55;;;;;;;3.00;2.60;;;;;;;;;;5039584;28;20466;-74
2023/01/17 05:21:22;;;;;;;3.30;3.00;;;;;;;;;;5041587;28;20448;-74
2023/01/17 05:23:50;;;;;;;2.90;2.70;;;;;;;;;;5035477;28;20477;-74
2023/01/17 05:26:17;;;;;;;4.57;2.70;;;;;;;;;;5036106;28;20481;-75
2023/01/17 05:28:44;;;;;;;2.50;2.40;;;;;;;;;;5037332;28;20858;-76
2023/01/17 05:31:11;;;;;;;2.50;2.40;;;;;;;;;;5037450;28;20471;-75
2023/01/17 05:33:38;;;;;;;2.90;2.70;;;;;;;;;;5038266;28;20968;-75
2023/01/17 05:36:07;;;;;;;2.87;2.70;;;;;;;;;;5044225;28;20458;-75
2023/01/17 05:38:34;;;;;;;2.80;2.60;;;;;;;;;;5040447;28;20463;-75
2023/01/17 05:41:03;;;;;;;2.73;2.53;;;;;;;;;;5040461;28;20444;-75
2023/01/17 05:43:30;;;;;;;2.70;2.50;;;;;;;;;;5039062;28;20996;-75
2023/01/17 05:45:57;;;;;;;4.40;3.50;;;;;;;;;;5040683;28;20450;-74
2023/01/17 05:48:24;;;;;;;2.90;2.70;;;;;;;;;;5041475;28;20476;-75
2023/01/17 05:50:51;;;;;;;3.37;2.63;;;;;;;;;;5039737;28;20442;-75
2023/01/17 05:53:20;;;;;;;2.47;2.37;;;;;;;;;;5042203;28;20448;-75
2023/01/17 05:55:48;;;;;;;4.43;2.90;;;;;;;;;;5043559;28;20448;-75
2023/01/17 05:58:16;;;;;;;3.30;3.00;;;;;;;;;;5047634;28;20884;-74
2023/01/17 06:00:43;;;;;;;4.33;3.33;;;;;;;;;;5039628;28;20476;-74
2023/01/17 06:03:10;;;;;;;2.20;2.10;;;;;;;;;;5036227;28;20488;-74
2023/01/17 06:05:37;;;;;;;2.57;2.47;;;;;;;;;;5037690;28;20442;-75
2023/01/17 06:08:04;;;;;;;3.97;3.00;;;;;;;;;;5046206;28;20635;-74
2023/01/17 06:10:33;;;;;;;3.03;2.70;;;;;;;;;;5041829;28;20444;-74
2023/01/17 06:13:04;;;;;;;2.93;2.70;;;;;;;;;;5047316;28;20467;-75
2023/01/17 06:15:31;;;;;;;2.30;2.10;;;;;;;;;;5058087;28;20444;-75
2023/01/17 06:17:58;;;;;;;2.80;2.63;;;;;;;;;;5058027;28;20451;-74
2023/01/17 06:20:26;;;;;;;3.27;2.97;;;;;;;;;;5056083;28;20452;-75
2023/01/17 06:22:54;;;;;;;2.93;2.67;;;;;;;;;;5054523;28;20481;-75
2023/01/17 06:25:21;;;;;;;3.40;3.20;;;;;;;;;;5054719;28;20853;-76
2023/01/17 06:27:49;;;;;;;8.70;3.67;;;;;;;;;;5051835;28;20546;-75
2023/01/17 06:30:16;;;;;;;3.47;3.17;;;;;;;;;;5051154;28;20468;-74
2023/01/17 06:32:43;;;;;;;2.87;2.67;;;;;;;;;;5049950;28;20438;-74
2023/01/17 06:35:10;;;;;;;5.27;2.83;;;;;;;;;;5051921;28;20680;-75
2023/01/17 06:37:37;;;;;;;3.20;2.93;;;;;;;;;;5051338;28;21007;-75
2023/01/17 06:40:05;;;;;;;3.10;2.80;;;;;;;;;;5051320;28;20474;-75
2023/01/17 06:42:32;;;;;;;3.83;2.83;;;;;;;;;;5051552;28;20819;-75
2023/01/17 06:45:00;;;;;;;3.23;2.97;;;;;;;;;;5050999;28;20929;-75
2023/01/17 06:47:27;;;;;;;5.50;3.40;;;;;;;;;;5051601;28;20455;-74
2023/01/17 06:49:54;;;;;;;3.37;2.73;;;;;;;;;;5050896;28;20472;-75
2023/01/17 06:52:21;;;;;;;2.73;2.63;;;;;;;;;;5051149;28;20828;-75
2023/01/17 06:54:48;;;;;;;3.43;3.10;;;;;;;;;;5056947;28;20450;-75
2023/01/17 06:57:15;;;;;;;3.13;2.83;;;;;;;;;;5053288;28;20452;-75
2023/01/17 06:59:42;;;;;;;3.60;3.30;;;;;;;;;;5059178;28;20989;-75
2023/01/17 07:02:11;;;;;;;3.50;2.77;;;;;;;;;;5056795;28;20451;-75
2023/01/17 07:04:38;;;;;;;8.07;3.70;;;;;;;;;;5055849;28;20943;-75
2023/01/17 07:07:05;;;;;;;3.37;3.17;;;;;;;;;;5057925;28;20461;-76
2023/01/17 07:09:32;;;;;;;3.60;3.30;;;;;;;;;;5056466;28;20479;-74
2023/01/17 07:12:00;;;;;;;4.43;3.30;;;;;;;;;;5058447;28;20578;-74
2023/01/17 07:14:27;;;;;;;5.03;3.40;;;;;;;;;;5071612;28;20597;-75
2023/01/17 07:16:54;;;;;;;3.53;3.23;;;;;;;;;;5051411;28;20473;-75
2023/01/17 07:19:23;;;;;;;5.73;3.60;;;;;;;;;;5051278;28;20461;-75
2023/01/17 07:21:51;;;;;;;4.27;3.40;;;;;;;;;;5051129;28;20688;-74
2023/01/17 07:24:18;;;;;;;11.97;9.60;;;;;;;;;;5050939;28;20573;-74
2023/01/17 07:26:48;;;;;;;6.20;5.53;;;;;;;;;;5051146;28;20464;-76
2023/01/17 07:29:15;;;;;;;5.23;4.83;;;;;;;;;;5050697;28;20475;-75
2023/01/17 07:31:42;;;;;;;6.93;6.23;;;;;;;;;;5060681;28;20452;-75
2023/01/17 07:34:09;;;;;;;4.53;4.17;;;;;;;;;;5067611;28;20443;-75
2023/01/17 07:36:38;;;;;;;4.00;3.70;;;;;;;;;;5068696;28;20430;-75
2023/01/17 07:39:05;;;;;;;3.90;3.47;;;;;;;;;;5069187;28;20462;-74
2023/01/17 07:41:33;;;;;;;4.13;3.73;;;;;;;;;;5071007;28;20436;-75
2023/01/17 07:44:00;;;;;;;5.10;3.50;;;;;;;;;;5066933;28;20476;-74
2023/01/17 07:46:27;;;;;;;4.47;3.63;;;;;;;;;;5070986;28;20444;-74
2023/01/17 07:48:54;;;;;;;5.53;4.93;;;;;;;;;;5071656;28;20575;-74
2023/01/17 07:51:22;;;;;;;4.90;3.70;;;;;;;;;;5072056;28;20436;-76
2023/01/17 07:53:50;;;;;;;4.40;4.00;;;;;;;;;;5070865;28;20543;-74
2023/01/17 07:56:17;;;;;;;3.67;3.43;;;;;;;;;;5066160;28;20447;-75
2023/01/17 07:58:44;;;;;;;4.87;4.47;;;;;;;;;;5063882;28;20465;-75
2023/01/17 08:01:12;;;;;;;5.23;4.10;;;;;;;;;;5061316;28;20443;-75
2023/01/17 08:03:40;;;;;;;6.70;4.63;;;;;;;;;;5066717;28;20479;-74
2023/01/17 08:06:07;;;;;;;6.87;5.10;;;;;;;;;;5063424;28;20447;-75
2023/01/17 08:08:34;;;;;;;5.00;4.60;;;;;;;;;;5067275;28;20471;-75
2023/01/17 08:11:03;;;;;;;5.23;4.07;;;;;;;;;;5069753;28;20448;-74
2023/01/17 08:13:30;;;;;;;7.63;4.37;;;;;;;;;;5068292;28;20452;-74
2023/01/17 08:16:01;;;;;;;5.10;3.80;;;;;;;;;;5056851;28;20444;-75
2023/01/17 08:18:28;;;;;;;5.00;3.93;;;;;;;;;;5047783;28;20619;-75
2023/01/17 08:20:55;;;;;;;12.30;9.03;;;;;;;;;;5047666;28;20440;-75
2023/01/17 08:23:22;;;;;;;5.57;4.97;;;;;;;;;;5049145;28;20489;-76
2023/01/17 08:25:49;;;;;;;4.70;3.27;;;;;;;;;;5035242;28;20453;-75
2023/01/17 08:28:18;;;;;;;3.93;3.73;;;;;;;;;;5041631;28;20459;-75
2023/01/17 08:30:45;;;;;;;5.00;4.50;;;;;;;;;;5039874;28;20932;-75
2023/01/17 08:33:12;;;;;;;4.80;4.40;;;;;;;;;;5036005;28;20443;-74
2023/01/17 08:35:41;;;;;;;8.40;4.20;;;;;;;;;;5036755;28;20446;-75
2023/01/17 08:38:08;;;;;;;4.93;4.10;;;;;;;;;;5040885;28;20881;-74
2023/01/17 08:40:35;;;;;;;5.60;3.60;;;;;;;;;;5032841;28;20445;-75
2023/01/17 08:43:02;;;;;;;3.07;2.80;;;;;;;;;;5031634;28;20484;-75
2023/01/17 08:45:31;;;;;;;4.50;3.40;;;;;;;;;;5035159;28;20822;-75
2023/01/17 08:47:58;;;;;;;3.60;2.60;;;;;;;;;;5031206;28;20473;-75
2023/01/17 08:50:26;;;;;;;3.20;3.00;;;;;;;;;;5031923;28;20454;-75
2023/01/17 08:52:57;;;;;;;5.00;3.03;;;;;;;;;;5042069;28;20448;-75
2023/01/17 08:55:25;;;;;;;3.63;3.43;;;;;;;;;;5029981;28;20446;-75
2023/01/17 08:57:52;;;;;;;3.67;3.33;;;;;;;;;;5029561;28;20485;-75
2023/01/17 09:00:19;;;;;;;6.23;3.33;;;;;;;;;;5030270;28;20485;-74
2023/01/17 09:02:48;;;;;;;4.10;3.70;;;;;;;;;;5029441;28;20446;-75
2023/01/17 09:05:15;;;;;;;4.33;3.93;;;;;;;;;;5043993;28;20480;-75
2023/01/17 09:07:42;;;;;;;4.30;4.00;;;;;;;;;;5049143;28;20445;-76
2023/01/17 09:10:10;;;;;;;6.10;4.07;;;;;;;;;;5050073;28;20470;-76
2023/01/17 09:12:37;;;;;;;8.77;4.10;;;;;;;;;;5049074;28;20437;-75
2023/01/17 09:15:05;;;;;;;3.90;3.60;;;;;;;;;;5049221;28;20447;-77
2023/01/17 09:17:32;;;;;;;4.50;3.93;;;;;;;;;;5048782;28;20928;-76
2023/01/17 09:20:00;;;;;;;3.67;3.37;;;;;;;;;;5050602;28;20460;-74
2023/01/17 09:22:27;;;;;;;4.43;3.83;;;;;;;;;;5062852;28;20474;-76
2023/01/17 09:24:54;;;;;;;4.63;3.50;;;;;;;;;;5066613;28;20480;-75
2023/01/17 09:27:21;;;;;;;4.83;4.43;;;;;;;;;;5054637;28;20468;-76
2023/01/17 09:29:48;;;;;;;4.07;3.67;;;;;;;;;;5049879;28;20468;-75
2023/01/17 09:32:15;;;;;;;3.57;3.33;;;;;;;;;;5050035;28;20507;-75
2023/01/17 09:34:43;;;;;;;3.60;3.30;;;;;;;;;;5049465;28;20476;-76
2023/01/17 09:37:11;;;;;;;3.10;2.90;;;;;;;;;;5049711;28;21006;-76
2023/01/17 09:39:38;;;;;;;4.80;3.37;;;;;;;;;;5049643;28;20604;-75
2023/01/17 09:42:12;;;;;;;4.07;3.77;;;;;;;;;;5049943;28;20445;-75
2023/01/17 09:44:40;;;;;;;4.37;3.50;;;;;;;;;;5048793;28;20461;-76
2023/01/17 09:47:12;;;;;;;4.37;3.97;;;;;;;;;;5048825;28;20449;-76
2023/01/17 09:49:41;;;;;;;7.50;4.03;;;;;;;;;;5049410;28;20461;-75
2023/01/17 09:52:09;;;;;;;5.23;4.73;;;;;;;;;;5049296;28;20453;-76
2023/01/17 09:54:39;;;;;;;3.90;3.60;;;;;;;;;;5049055;28;20957;-76
2023/01/17 09:57:14;;;;;;;4.50;4.10;;;;;;;;;;5048924;28;20945;-75
2023/01/17 09:59:46;;;;;;;4.63;3.97;;;;;;;;;;5048561;28;20465;-75
2023/01/17 10:02:21;;;;;;;4.57;4.13;;;;;;;;;;5049440;28;20452;-76
2023/01/17 10:04:58;;;;;;;3.53;3.23;;;;;;;;;;5049586;28;20492;-74
2023/01/17 10:07:31;;;;;;;3.80;3.43;;;;;;;;;;5053872;28;20806;-75
2023/01/17 10:10:10;;;;;;;3.87;3.57;;;;;;;;;;5052756;28;20465;-76
2023/01/17 10:12:40;;;;;;;3.00;2.70;;;;;;;;;;5052549;28;20998;-75
2023/01/17 10:15:29;;;;;;;3.20;2.87;;;;;;;;;;5047539;28;20495;-75
2023/01/17 10:18:02;;;;;;;3.83;3.30;;;;;;;;;;5033336;28;20438;-75
2023/01/17 10:20:37;;;;;;;3.93;3.33;;;;;;;;;;5032609;28;20564;-76
2023/01/17 10:23:20;;;;;;;3.70;2.70;;;;;;;;;;5033396;28;20481;-76
2023/01/17 10:25:50;;;;;;;6.77;2.47;;;;;;;;;;5032652;28;20457;-76
2023/01/17 10:28:18;;;;;;;3.67;2.73;;;;;;;;;;5032502;28;20461;-75
2023/01/17 10:30:48;;;;;;;4.80;3.30;;;;;;;;;;5032321;28;20446;-76
2023/01/17 10:33:17;;;;;;;3.40;3.20;;;;;;;;;;5033508;28;20451;-75
2023/01/17 10:35:48;;;;;;;3.37;3.07;;;;;;;;;;5034907;28;21025;-76
2023/01/17 10:38:17;;;;;;;4.13;3.03;;;;;;;;;;5033641;28;20450;-76
2023/01/17 10:40:49;;;;;;;4.10;3.80;;;;;;;;;;5031710;28;20805;-75
2023/01/17 10:43:20;;;;;;;6.23;3.53;;;;;;;;;;5031751;28;20489;-75
2023/01/17 10:45:52;;;;;;;4.10;3.67;;;;;;;;;;5031882;28;20926;-76
2023/01/17 10:48:22;;;;;;;5.40;4.43;;;;;;;;;;5032796;28;20442;-76
2023/01/17 10:50:57;;;;;;;3.43;3.13;;;;;;;;;;5033476;28;20500;-75
2023/01/17 10:53:34;;;;;;;5.40;3.80;;;;;;;;;;5030966;28;20441;-75
2023/01/17 10:56:01;;;;;;;4.00;3.40;;;;;;;;;;5031290;28;20845;-75
2023/01/17 10:58:31;;;;;;;3.50;3.20;;;;;;;;;;5031884;28;20490;-76
2023/01/17 11:01:00;;;;;;;5.03;3.77;;;;;;;;;;5031883;28;20793;-76
2023/01/17 11:03:27;;;;;;;4.30;2.90;;;;;;;;;;5032652;28;20454;-75
2023/01/17 11:06:15;;;;;;;2.80;2.60;;;;;;;;;;5032369;28;20450;-75
2023/01/17 11:08:50;;;;;;;4.83;3.10;;;;;;;;;;5032243;28;20458;-75
2023/01/17 11:11:17;;;;;;;3.20;2.90;;;;;;;;;;5032656;28;20446;-75
2023/01/17 11:13:47;;;;;;;2.80;2.60;;;;;;;;;;5031396;28;20454;-75
2023/01/17 11:16:19;;;;;;;3.73;2.70;;;;;;;;;;5045617;28;21015;-75
2023/01/17 11:18:48;;;;;;;2.90;2.67;;;;;;;;;;5050266;28;20474;-76
2023/01/17 11:21:16;;;;;;;1.93;1.73;;;;;;;;;;5051294;28;20445;-75
2023/01/17 11:23:44;;;;;;;2.93;2.03;;;;;;;;;;5050631;28;20887;-75
2023/01/17 11:26:13;;;;;;;2.90;2.13;;;;;;;;;;5050622;28;20522;-75
2023/01/17 11:28:41;;;;;;;3.33;3.03;;;;;;;;;;5050508;28;20477;-76
2023/01/17 11:31:23;;;;;;;1.90;1.53;;;;;;;;;;5051013;28;20445;-76
2023/01/17 11:33:54;;;;;;;1.67;1.57;;;;;;;;;;5050700;28;20472;-75
2023/01/17 11:36:23;;;;;;;1.60;1.50;;;;;;;;;;5050577;28;20446;-76
2023/01/17 11:38:57;;;;;;;2.13;1.30;;;;;;;;;;5050206;28;20469;-76
2023/01/17 11:41:24;;;;;;;2.00;1.63;;;;;;;;;;5050672;28;20928;-76
2023/01/17 11:43:52;;;;;;;1.70;1.67;;;;;;;;;;5050230;28;20476;-76
2023/01/17 11:46:21;;;;;;;3.00;2.53;;;;;;;;;;5050820;28;20453;-76
2023/01/17 11:48:50;;;;;;;1.53;1.43;;;;;;;;;;5050710;28;20466;-75
2023/01/17 11:51:19;;;;;;;2.40;1.23;;;;;;;;;;5050649;28;20441;-75
2023/01/17 11:53:47;;;;;;;1.17;1.17;;;;;;;;;;5051464;28;20846;-75
2023/01/17 11:56:19;;;;;;;1.50;1.40;;;;;;;;;;5050216;28;20532;-76
2023/01/17 11:58:47;;;;;;;1.40;1.17;;;;;;;;;;5050979;28;20500;-74
2023/01/17 12:01:26;;;;;;;1.47;1.37;;;;;;;;;;5050954;28;20469;-76
2023/01/17 12:03:58;;;;;;;1.87;1.20;;;;;;;;;;5051367;28;20445;-76
2023/01/17 12:06:32;;;;;;;18.27;16.40;;;;;;;;;;5051453;28;21002;-75
2023/01/17 12:09:07;;;;;;;1.40;1.20;;;;;;;;;;5050016;28;20961;-75
2023/01/17 12:13:59;;;;;;;1.20;1.20;;;;;;;;;;5049752;28;20448;-77
2023/01/17 12:14:34;;;;;;;1.90;1.70;;;;;;;;;;5049000;28;20442;-75
2023/01/17 12:17:06;;;;;;;1.00;1.00;;;;;;;;;;5035938;28;21154;-76
2023/01/17 12:19:40;;;;;;;3.10;1.47;;;;;;;;;;5031012;28;20494;-76
2023/01/17 12:22:19;;;;;;;1.10;1.00;;;;;;;;;;5030744;28;21030;-75
2023/01/17 12:24:51;;;;;;;1.63;1.23;;;;;;;;;;5030617;28;20903;-75
2023/01/17 12:27:22;;;;;;;1.90;1.10;;;;;;;;;;5030600;28;20454;-76
2023/01/17 12:29:57;;;;;;;1.60;1.00;;;;;;;;;;5030595;28;20526;-76
2023/01/17 12:32:36;;;;;;;1.50;1.50;;;;;;;;;;5030735;28;20464;-75
2023/01/17 12:35:08;;;;;;;1.00;0.90;;;;;;;;;;5048055;28;20449;-75
2023/01/17 12:37:38;;;;;;;1.40;1.30;;;;;;;;;;5050442;28;20434;-75
2023/01/17 12:40:10;;;;;;;1.90;1.40;;;;;;;;;;5049375;28;20462;-76
2023/01/17 12:42:39;;;;;;;1.10;1.10;;;;;;;;;;5049906;28;20449;-75
2023/01/17 12:45:08;;;;;;;2.53;1.00;;;;;;;;;;5051179;28;20473;-76
2023/01/17 12:47:41;;;;;;;2.10;1.13;;;;;;;;;;5053057;28;20988;-75
2023/01/17 12:50:16;;;;;;;2.00;1.30;;;;;;;;;;5052142;28;20618;-76
2023/01/17 12:52:48;;;;;;;3.80;3.50;;;;;;;;;;5049315;28;20942;-76
2023/01/17 12:55:18;;;;;;;1.20;1.20;;;;;;;;;;5050739;28;20438;-77
2023/01/17 12:57:46;;;;;;;3.37;1.27;;;;;;;;;;5050142;28;20453;-75
2023/01/17 13:00:18;;;;;;;2.83;1.37;;;;;;;;;;5050034;28;20469;-76
2023/01/17 13:02:50;;;;;;;1.70;1.00;;;;;;;;;;5049509;28;20544;-75
2023/01/17 13:05:22;;;;;;;2.93;1.33;;;;;;;;;;5049510;28;20477;-75
2023/01/17 13:07:52;;;;;;;1.90;1.43;;;;;;;;;;5049459;28;20449;-74
2023/01/17 13:10:26;;;;;;;2.83;1.60;;;;;;;;;;5049308;28;20469;-76
2023/01/17 13:12:55;;;;;;;1.40;1.33;;;;;;;;;;5049628;28;20449;-76
2023/01/17 13:15:24;;;;;;;1.60;1.50;;;;;;;;;;5049907;28;20833;-76
2023/01/17 13:17:57;;;;;;;1.90;1.43;;;;;;;;;;5050046;28;20441;-75
2023/01/17 13:20:30;;;;;;;2.50;1.67;;;;;;;;;;5050109;28;20469;-76
2023/01/17 13:23:01;;;;;;;2.53;1.27;;;;;;;;;;5054086;28;20476;-75
2023/01/17 13:25:33;;;;;;;1.53;1.40;;;;;;;;;;5055207;28;20553;-75
2023/01/17 13:28:05;;;;;;;1.30;1.30;;;;;;;;;;5055407;28;20449;-76
2023/01/17 13:30:42;;;;;;;1.33;1.23;;;;;;;;;;5050659;28;20453;-75
2023/01/17 13:33:17;;;;;;;1.30;1.20;;;;;;;;;;5049579;28;20471;-76
2023/01/17 13:35:50;;;;;;;4.27;2.80;;;;;;;;;;5050251;28;20437;-75
2023/01/17 13:38:30;;;;;;;1.40;1.30;;;;;;;;;;5049766;28;20468;-75
2023/01/17 13:41:03;;;;;;;1.70;1.60;;;;;;;;;;5051400;28;20449;-76
2023/01/17 13:43:31;;;;;;;1.80;1.53;;;;;;;;;;5054311;28;20449;-76
2023/01/17 13:46:01;;;;;;;1.83;1.20;;;;;;;;;;5055131;28;20477;-75
2023/01/17 13:48:36;;;;;;;1.60;1.50;;;;;;;;;;5055342;28;20507;-75
2023/01/17 13:51:03;;;;;;;1.17;1.10;;;;;;;;;;5054147;28;20484;-76
2023/01/17 13:53:57;;;;;;;2.30;1.20;;;;;;;;;;5052652;28;20444;-74
2023/01/17 13:56:39;;;;;;;4.17;1.37;;;;;;;;;;5055081;28;20498;-75
2023/01/17 13:59:21;;;;;;;1.90;1.20;;;;;;;;;;5052974;28;20478;-75
2023/01/17 14:01:52;;;;;;;1.37;1.27;;;;;;;;;;5053582;28;20453;-76
2023/01/17 14:04:21;;;;;;;1.77;1.63;;;;;;;;;;5052744;28;20445;-76
2023/01/17 14:06:51;;;;;;;1.10;1.10;;;;;;;;;;5053487;28;20446;-74
2023/01/17 14:09:29;;;;;;;1.37;1.37;;;;;;;;;;5052474;28;20518;-76
2023/01/17 14:11:58;;;;;;;2.47;1.20;;;;;;;;;;5051824;28;21218;-76
2023/01/17 14:14:35;;;;;;;1.43;1.33;;;;;;;;;;5051980;28;20442;-75
2023/01/17 14:17:21;;;;;;;1.50;1.20;;;;;;;;;;5032005;28;21001;-76
2023/01/17 14:19:51;;;;;;;3.07;1.20;;;;;;;;;;5032177;28;21056;-75
2023/01/17 14:22:22;;;;;;;1.40;1.30;;;;;;;;;;5031901;28;20588;-76
2023/01/17 14:24:57;;;;;;;2.83;1.57;;;;;;;;;;5031650;28;20600;-76
2023/01/17 14:27:25;;;;;;;1.30;1.10;;;;;;;;;;5031959;28;20458;-76
2023/01/17 14:29:57;;;;;;;3.03;1.50;;;;;;;;;;5032303;28;20561;-75
2023/01/17 14:32:26;;;;;;;2.40;1.53;;;;;;;;;;5032608;28;20497;-74
2023/01/17 14:34:56;;;;;;;1.90;1.40;;;;;;;;;;5032108;28;20446;-75
2023/01/17 14:37:27;;;;;;;1.23;1.13;;;;;;;;;;5032423;28;20450;-75
2023/01/17 14:39:54;;;;;;;3.33;2.00;;;;;;;;;;5032119;28;20470;-77
2023/01/17 14:42:23;;;;;;;2.20;1.80;;;;;;;;;;5032875;28;20442;-75
2023/01/17 14:44:52;;;;;;;2.87;2.43;;;;;;;;;;5032988;28;20533;-75
2023/01/17 14:47:21;;;;;;;2.37;2.17;;;;;;;;;;5033427;28;20494;-75
2023/01/17 14:49:48;;;;;;;3.63;2.10;;;;;;;;;;5034297;28;20548;-75
2023/01/17 14:52:20;;;;;;;3.23;2.00;;;;;;;;;;5031778;28;20447;-77
2023/01/17 14:54:50;;;;;;;3.30;3.00;;;;;;;;;;5032156;28;20477;-75
2023/01/17 14:57:26;;;;;;;6.40;2.17;;;;;;;;;;5031687;28;20946;-74
2023/01/17 15:00:08;;;;;;;2.60;2.40;;;;;;;;;;5031801;28;20473;-75
2023/01/17 15:02:39;;;;;;;5.40;2.27;;;;;;;;;;5031616;28;20867;-75
2023/01/17 15:05:06;;;;;;;2.60;2.40;;;;;;;;;;5031398;28;20469;-75
2023/01/17 15:07:37;;;;;;;8.73;2.70;;;;;;;;;;5031074;28;20452;-75
2023/01/17 15:10:04;;;;;;;2.93;2.37;;;;;;;;;;5031022;28;21002;-75
2023/01/17 15:12:31;;;;;;;2.83;2.60;;;;;;;;;;5031200;28;20486;-74
2023/01/17 15:14:58;;;;;;;3.50;2.43;;;;;;;;;;5035481;28;20445;-76
2023/01/17 15:17:26;;;;;;;4.13;3.27;;;;;;;;;;5051459;28;20460;-75
2023/01/17 15:19:54;;;;;;;5.40;3.00;;;;;;;;;;5051938;28;20480;-75
2023/01/17 15:22:22;;;;;;;4.10;3.20;;;;;;;;;;5051464;28;20448;-75
2023/01/17 15:24:51;;;;;;;3.43;2.90;;;;;;;;;;5050927;28;20444;-76
2023/01/17 15:27:18;;;;;;;4.87;3.20;;;;;;;;;;5050948;28;20461;-74
2023/01/17 15:29:46;;;;;;;4.70;3.03;;;;;;;;;;5051099;28;20985;-76
2023/01/17 15:32:18;;;;;;;6.07;3.30;;;;;;;;;;5051183;28;20449;-75
2023/01/17 15:34:46;;;;;;;4.20;2.97;;;;;;;;;;5050742;28;20544;-75
2023/01/17 15:37:22;;;;;;;5.50;3.37;;;;;;;;;;5050737;28;20472;-76
2023/01/17 15:39:51;;;;;;;3.90;2.87;;;;;;;;;;5050931;28;20942;-75
2023/01/17 15:42:22;;;;;;;4.00;2.93;;;;;;;;;;5051242;28;20446;-75
2023/01/17 15:44:52;;;;;;;4.07;3.00;;;;;;;;;;5050664;28;20449;-74
2023/01/17 15:47:27;;;;;;;3.90;3.10;;;;;;;;;;5053747;28;20449;-75
2023/01/17 15:49:54;;;;;;;3.30;3.00;;;;;;;;;;5050945;28;20464;-76
2023/01/17 15:52:21;;;;;;;5.30;3.13;;;;;;;;;;5050695;28;20656;-75
2023/01/17 15:54:51;;;;;;;5.57;2.90;;;;;;;;;;5050421;28;20859;-75
2023/01/17 15:57:25;;;;;;;5.47;3.30;;;;;;;;;;5050443;28;20523;-75
2023/01/17 15:59:53;;;;;;;4.07;3.27;;;;;;;;;;5050951;28;20460;-75
2023/01/17 16:02:39;;;;;;;5.97;3.70;;;;;;;;;;5050021;28;20445;-74
2023/01/17 16:05:21;;;;;;;6.20;3.93;;;;;;;;;;5049968;28;20534;-76
2023/01/17 16:07:48;;;;;;;6.00;3.43;;;;;;;;;;5038065;28;20456;-75
2023/01/17 16:10:17;;;;;;;6.73;3.90;;;;;;;;;;5050526;28;20468;-76
2023/01/17 16:12:46;;;;;;;5.87;4.10;;;;;;;;;;5049761;28;20449;-77
2023/01/17 16:15:13;;;;;;;5.87;4.03;;;;;;;;;;5043928;28;20480;-74